sensor_id;sensor_type;location;lat;lon;timestamp;temperature;humidity
52030;DHT22;38043;53.224;6.580;2022-09-03T00:00:18;17.30;76.00
52030;DHT22;38043;53.224;6.580;2022-09-03T00:02:48;17.30;76.00
52030;DHT22;38043;53.224;6.580;2022-09-03T00:05:48;17.30;76.20
52030;DHT22;38043;53.224;6.580;2022-09-03T00:08:35;17.20;76.30
52030;DHT22;38043;53.224;6.580;2022-09-03T00:11:15;17.20;76.40
52030;DHT22;38043;53.224;6.580;2022-09-03T00:14:02;17.10;76.60
52030;DHT22;38043;53.224;6.580;2022-09-03T00:16:42;17.10;76.40
52030;DHT22;38043;53.224;6.580;2022-09-03T00:19:09;17.10;76.30
52030;DHT22;38043;53.224;6.580;2022-09-03T00:21:44;17.10;76.30
52030;DHT22;38043;53.224;6.580;2022-09-03T00:24:13;17.10;76.40
52030;DHT22;38043;53.224;6.580;2022-09-03T00:26:47;17.10;76.40
52030;DHT22;38043;53.224;6.580;2022-09-03T00:29:23;17.00;76.40
52030;DHT22;38043;53.224;6.580;2022-09-03T00:31:53;17.00;76.50
52030;DHT22;38043;53.224;6.580;2022-09-03T00:34:43;17.00;76.60
52030;DHT22;38043;53.224;6.580;2022-09-03T00:37:10;17.00;76.60
52030;DHT22;38043;53.224;6.580;2022-09-03T00:39:36;16.90;76.70
52030;DHT22;38043;53.224;6.580;2022-09-03T00:45:09;16.90;77.30
52030;DHT22;38043;53.224;6.580;2022-09-03T00:50:31;16.80;77.70
52030;DHT22;38043;53.224;6.580;2022-09-03T01:01:01;16.70;77.40
52030;DHT22;38043;53.224;6.580;2022-09-03T01:12:07;16.70;77.70
52030;DHT22;38043;53.224;6.580;2022-09-03T01:17:51;16.60;77.90
52030;DHT22;38043;53.224;6.580;2022-09-03T01:23:37;16.60;78.30
52030;DHT22;38043;53.224;6.580;2022-09-03T01:31:59;16.50;79.00
52030;DHT22;38043;53.224;6.580;2022-09-03T01:45:56;16.20;80.40
52030;DHT22;38043;53.224;6.580;2022-09-03T01:48:44;16.20;80.30
52030;DHT22;38043;53.224;6.580;2022-09-03T01:51:26;16.10;81.50
52030;DHT22;38043;53.224;6.580;2022-09-03T01:59:30;15.90;81.90
52030;DHT22;38043;53.224;6.580;2022-09-03T02:02:16;15.80;82.40
52030;DHT22;38043;53.224;6.580;2022-09-03T02:10:18;15.60;84.40
52030;DHT22;38043;53.224;6.580;2022-09-03T02:13:00;15.60;84.50
52030;DHT22;38043;53.224;6.580;2022-09-03T02:15:27;15.50;85.00
52030;DHT22;38043;53.224;6.580;2022-09-03T02:17:55;15.40;84.90
52030;DHT22;38043;53.224;6.580;2022-09-03T02:20:26;15.40;85.00
52030;DHT22;38043;53.224;6.580;2022-09-03T02:22:53;15.30;85.10
52030;DHT22;38043;53.224;6.580;2022-09-03T02:25:28;15.30;85.00
52030;DHT22;38043;53.224;6.580;2022-09-03T02:27:55;15.20;85.20
52030;DHT22;38043;53.224;6.580;2022-09-03T02:30:20;15.20;85.60
52030;DHT22;38043;53.224;6.580;2022-09-03T02:32:46;15.20;86.00
52030;DHT22;38043;53.224;6.580;2022-09-03T02:35:12;15.10;86.10
52030;DHT22;38043;53.224;6.580;2022-09-03T02:37:38;15.10;86.50
52030;DHT22;38043;53.224;6.580;2022-09-03T02:40:04;15.10;86.40
52030;DHT22;38043;53.224;6.580;2022-09-03T02:42:33;15.00;86.40
52030;DHT22;38043;53.224;6.580;2022-09-03T02:45:26;15.00;87.20
52030;DHT22;38043;53.224;6.580;2022-09-03T02:47:55;15.00;87.20
52030;DHT22;38043;53.224;6.580;2022-09-03T02:50:22;14.90;87.40
52030;DHT22;38043;53.224;6.580;2022-09-03T02:52:48;14.80;88.00
52030;DHT22;38043;53.224;6.580;2022-09-03T02:55:14;14.80;87.80
52030;DHT22;38043;53.224;6.580;2022-09-03T02:57:40;14.70;87.80
52030;DHT22;38043;53.224;6.580;2022-09-03T03:00:06;14.70;88.00
52030;DHT22;38043;53.224;6.580;2022-09-03T03:02:33;14.70;88.20
52030;DHT22;38043;53.224;6.580;2022-09-03T03:04:59;14.70;88.50
52030;DHT22;38043;53.224;6.580;2022-09-03T03:07:24;14.60;88.90
52030;DHT22;38043;53.224;6.580;2022-09-03T03:09:51;14.60;89.00
52030;DHT22;38043;53.224;6.580;2022-09-03T03:12:17;14.60;89.30
52030;DHT22;38043;53.224;6.580;2022-09-03T03:14:44;14.60;89.40
52030;DHT22;38043;53.224;6.580;2022-09-03T03:17:10;14.50;89.70
52030;DHT22;38043;53.224;6.580;2022-09-03T03:19:35;14.50;89.90
52030;DHT22;38043;53.224;6.580;2022-09-03T03:22:02;14.50;90.10
52030;DHT22;38043;53.224;6.580;2022-09-03T03:24:27;14.40;90.30
52030;DHT22;38043;53.224;6.580;2022-09-03T03:26:56;14.50;90.40
52030;DHT22;38043;53.224;6.580;2022-09-03T03:29:23;14.40;90.40
52030;DHT22;38043;53.224;6.580;2022-09-03T03:31:50;14.40;90.60
52030;DHT22;38043;53.224;6.580;2022-09-03T03:34:16;14.40;90.60
52030;DHT22;38043;53.224;6.580;2022-09-03T03:36:42;14.40;90.70
52030;DHT22;38043;53.224;6.580;2022-09-03T03:39:07;14.40;90.90
52030;DHT22;38043;53.224;6.580;2022-09-03T03:41:35;14.40;90.70
52030;DHT22;38043;53.224;6.580;2022-09-03T03:44:05;14.40;90.90
52030;DHT22;38043;53.224;6.580;2022-09-03T03:46:39;14.40;91.00
52030;DHT22;38043;53.224;6.580;2022-09-03T03:49:08;14.40;91.20
52030;DHT22;38043;53.224;6.580;2022-09-03T03:51:35;14.50;91.10
52030;DHT22;38043;53.224;6.580;2022-09-03T03:54:01;14.50;91.20
52030;DHT22;38043;53.224;6.580;2022-09-03T03:56:30;14.50;91.10
52030;DHT22;38043;53.224;6.580;2022-09-03T03:59:00;14.50;91.10
52030;DHT22;38043;53.224;6.580;2022-09-03T04:01:26;14.50;91.20
52030;DHT22;38043;53.224;6.580;2022-09-03T04:03:56;14.60;91.20
52030;DHT22;38043;53.224;6.580;2022-09-03T04:06:23;14.60;91.20
52030;DHT22;38043;53.224;6.580;2022-09-03T04:08:49;14.60;91.20
52030;DHT22;38043;53.224;6.580;2022-09-03T04:11:18;14.70;91.20
52030;DHT22;38043;53.224;6.580;2022-09-03T04:13:44;14.60;91.20
52030;DHT22;38043;53.224;6.580;2022-09-03T04:16:19;14.60;91.40
52030;DHT22;38043;53.224;6.580;2022-09-03T04:18:46;14.70;91.30
52030;DHT22;38043;53.224;6.580;2022-09-03T04:21:16;14.70;91.30
52030;DHT22;38043;53.224;6.580;2022-09-03T04:23:46;14.70;91.30
52030;DHT22;38043;53.224;6.580;2022-09-03T04:26:15;14.70;91.20
52030;DHT22;38043;53.224;6.580;2022-09-03T04:28:41;14.70;91.20
52030;DHT22;38043;53.224;6.580;2022-09-03T04:31:11;14.70;91.30
52030;DHT22;38043;53.224;6.580;2022-09-03T04:33:37;15.40;91.60
52030;DHT22;38043;53.224;6.580;2022-09-03T04:36:09;14.70;91.50
52030;DHT22;38043;53.224;6.580;2022-09-03T04:38:37;14.70;91.50
52030;DHT22;38043;53.224;6.580;2022-09-03T04:41:05;14.80;91.70
52030;DHT22;38043;53.224;6.580;2022-09-03T04:43:31;14.70;91.60
52030;DHT22;38043;53.224;6.580;2022-09-03T04:45:58;14.70;91.80
52030;DHT22;38043;53.224;6.580;2022-09-03T04:48:25;14.60;91.70
52030;DHT22;38043;53.224;6.580;2022-09-03T04:50:51;14.70;91.90
52030;DHT22;38043;53.224;6.580;2022-09-03T04:53:23;14.60;91.90
52030;DHT22;38043;53.224;6.580;2022-09-03T04:55:48;14.60;91.90
52030;DHT22;38043;53.224;6.580;2022-09-03T04:58:17;14.60;92.00
52030;DHT22;38043;53.224;6.580;2022-09-03T05:00:43;14.60;92.10
52030;DHT22;38043;53.224;6.580;2022-09-03T05:03:09;14.60;92.20
52030;DHT22;38043;53.224;6.580;2022-09-03T05:05:35;14.60;92.30
52030;DHT22;38043;53.224;6.580;2022-09-03T05:08:01;14.50;92.30
52030;DHT22;38043;53.224;6.580;2022-09-03T05:10:27;14.50;92.50
52030;DHT22;38043;53.224;6.580;2022-09-03T05:13:04;14.50;92.40
52030;DHT22;38043;53.224;6.580;2022-09-03T05:15:31;14.50;92.50
52030;DHT22;38043;53.224;6.580;2022-09-03T05:18:01;14.50;92.50
52030;DHT22;38043;53.224;6.580;2022-09-03T05:20:28;14.50;92.60
52030;DHT22;38043;53.224;6.580;2022-09-03T05:22:55;14.50;92.70
52030;DHT22;38043;53.224;6.580;2022-09-03T05:25:25;14.50;92.70
52030;DHT22;38043;53.224;6.580;2022-09-03T05:27:50;14.50;92.80
52030;DHT22;38043;53.224;6.580;2022-09-03T05:30:16;14.50;92.80
52030;DHT22;38043;53.224;6.580;2022-09-03T05:32:42;14.50;92.90
52030;DHT22;38043;53.224;6.580;2022-09-03T05:35:08;14.50;92.90
52030;DHT22;38043;53.224;6.580;2022-09-03T05:37:35;14.50;92.90
52030;DHT22;38043;53.224;6.580;2022-09-03T05:40:02;14.50;93.00
52030;DHT22;38043;53.224;6.580;2022-09-03T05:42:28;14.50;93.00
52030;DHT22;38043;53.224;6.580;2022-09-03T05:44:57;14.50;93.00
52030;DHT22;38043;53.224;6.580;2022-09-03T05:47:22;14.50;93.00
52030;DHT22;38043;53.224;6.580;2022-09-03T05:49:48;14.60;93.10
52030;DHT22;38043;53.224;6.580;2022-09-03T05:52:14;14.50;93.10
52030;DHT22;38043;53.224;6.580;2022-09-03T05:54:41;14.50;93.10
52030;DHT22;38043;53.224;6.580;2022-09-03T05:57:07;14.50;93.20
52030;DHT22;38043;53.224;6.580;2022-09-03T05:59:32;14.50;93.30
52030;DHT22;38043;53.224;6.580;2022-09-03T06:01:58;14.50;93.40
52030;DHT22;38043;53.224;6.580;2022-09-03T06:04:24;14.50;93.40
52030;DHT22;38043;53.224;6.580;2022-09-03T06:06:49;14.50;93.40
52030;DHT22;38043;53.224;6.580;2022-09-03T06:09:20;14.60;93.40
52030;DHT22;38043;53.224;6.580;2022-09-03T06:11:46;14.60;93.40
52030;DHT22;38043;53.224;6.580;2022-09-03T06:14:14;14.70;93.40
52030;DHT22;38043;53.224;6.580;2022-09-03T06:16:46;14.80;93.30
52030;DHT22;38043;53.224;6.580;2022-09-03T06:19:14;14.80;93.30
52030;DHT22;38043;53.224;6.580;2022-09-03T06:21:42;14.80;93.20
52030;DHT22;38043;53.224;6.580;2022-09-03T06:24:12;14.90;93.30
52030;DHT22;38043;53.224;6.580;2022-09-03T06:26:39;14.90;93.40
52030;DHT22;38043;53.224;6.580;2022-09-03T06:29:05;14.90;93.30
52030;DHT22;38043;53.224;6.580;2022-09-03T06:31:31;15.00;93.20
52030;DHT22;38043;53.224;6.580;2022-09-03T06:33:57;15.10;93.20
52030;DHT22;38043;53.224;6.580;2022-09-03T06:36:23;15.30;93.10
52030;DHT22;38043;53.224;6.580;2022-09-03T06:38:55;15.70;92.90
52030;DHT22;38043;53.224;6.580;2022-09-03T06:41:27;16.10;92.10
52030;DHT22;38043;53.224;6.580;2022-09-03T06:43:59;16.60;91.40
52030;DHT22;38043;53.224;6.580;2022-09-03T06:46:31;16.90;91.00
52030;DHT22;38043;53.224;6.580;2022-09-03T06:49:03;17.10;90.30
52030;DHT22;38043;53.224;6.580;2022-09-03T06:51:30;17.40;90.10
52030;DHT22;38043;53.224;6.580;2022-09-03T06:54:08;17.60;89.40
52030;DHT22;38043;53.224;6.580;2022-09-03T06:56:38;17.60;87.70
52030;DHT22;38043;53.224;6.580;2022-09-03T06:59:12;17.50;88.50
52030;DHT22;38043;53.224;6.580;2022-09-03T07:01:39;17.40;88.80
52030;DHT22;38043;53.224;6.580;2022-09-03T07:04:08;17.40;89.00
52030;DHT22;38043;53.224;6.580;2022-09-03T07:06:39;17.60;88.00
52030;DHT22;38043;53.224;6.580;2022-09-03T07:09:08;17.60;87.50
52030;DHT22;38043;53.224;6.580;2022-09-03T07:11:36;17.60;87.80
52030;DHT22;38043;53.224;6.580;2022-09-03T07:14:04;17.50;88.00
52030;DHT22;38043;53.224;6.580;2022-09-03T07:16:33;17.50;87.90
52030;DHT22;38043;53.224;6.580;2022-09-03T07:18:59;17.40;88.10
52030;DHT22;38043;53.224;6.580;2022-09-03T07:21:27;17.40;88.10
52030;DHT22;38043;53.224;6.580;2022-09-03T07:23:54;17.50;88.20
52030;DHT22;38043;53.224;6.580;2022-09-03T07:26:26;17.60;87.90
52030;DHT22;38043;53.224;6.580;2022-09-03T07:28:53;17.70;88.00
52030;DHT22;38043;53.224;6.580;2022-09-03T07:31:28;17.70;87.80
52030;DHT22;38043;53.224;6.580;2022-09-03T07:34:02;17.80;87.20
52030;DHT22;38043;53.224;6.580;2022-09-03T07:36:38;17.80;86.90
52030;DHT22;38043;53.224;6.580;2022-09-03T07:39:06;17.90;86.60
52030;DHT22;38043;53.224;6.580;2022-09-03T07:41:32;18.00;86.70
52030;DHT22;38043;53.224;6.580;2022-09-03T07:43:58;18.10;86.60
52030;DHT22;38043;53.224;6.580;2022-09-03T07:46:32;18.30;86.60
52030;DHT22;38043;53.224;6.580;2022-09-03T07:48:59;18.40;85.90
52030;DHT22;38043;53.224;6.580;2022-09-03T07:51:30;18.60;85.80
52030;DHT22;38043;53.224;6.580;2022-09-03T07:53:59;18.70;85.30
52030;DHT22;38043;53.224;6.580;2022-09-03T07:56:27;18.70;84.70
52030;DHT22;38043;53.224;6.580;2022-09-03T07:58:56;18.80;84.30
52030;DHT22;38043;53.224;6.580;2022-09-03T08:01:23;18.90;84.30
52030;DHT22;38043;53.224;6.580;2022-09-03T08:03:51;19.00;84.00
52030;DHT22;38043;53.224;6.580;2022-09-03T08:06:24;19.10;84.10
52030;DHT22;38043;53.224;6.580;2022-09-03T08:08:58;19.30;83.20
52030;DHT22;38043;53.224;6.580;2022-09-03T08:11:26;19.40;82.60
52030;DHT22;38043;53.224;6.580;2022-09-03T08:16:35;19.40;82.00
52030;DHT22;38043;53.224;6.580;2022-09-03T08:19:01;19.50;81.60
52030;DHT22;38043;53.224;6.580;2022-09-03T08:21:27;19.60;81.60
52030;DHT22;38043;53.224;6.580;2022-09-03T08:23:57;19.80;81.80
52030;DHT22;38043;53.224;6.580;2022-09-03T08:26:31;19.90;81.60
52030;DHT22;38043;53.224;6.580;2022-09-03T08:28:57;20.10;81.10
52030;DHT22;38043;53.224;6.580;2022-09-03T08:31:23;20.20;80.00
52030;DHT22;38043;53.224;6.580;2022-09-03T08:33:52;20.30;80.10
52030;DHT22;38043;53.224;6.580;2022-09-03T08:36:20;20.10;79.40
52030;DHT22;38043;53.224;6.580;2022-09-03T08:38:48;20.50;78.80
52030;DHT22;38043;53.224;6.580;2022-09-03T08:41:27;20.60;79.20
52030;DHT22;38043;53.224;6.580;2022-09-03T08:47:01;20.90;77.70
52030;DHT22;38043;53.224;6.580;2022-09-03T08:49:52;20.90;76.00
52030;DHT22;38043;53.224;6.580;2022-09-03T08:55:22;21.10;76.60
52030;DHT22;38043;53.224;6.580;2022-09-03T09:00:24;21.30;75.50
52030;DHT22;38043;53.224;6.580;2022-09-03T09:05:53;21.50;75.20
52030;DHT22;38043;53.224;6.580;2022-09-03T09:10:48;21.60;75.50
52030;DHT22;38043;53.224;6.580;2022-09-03T09:16:30;21.90;75.40
52030;DHT22;38043;53.224;6.580;2022-09-03T09:19:12;22.10;73.40
52030;DHT22;38043;53.224;6.580;2022-09-03T09:24:23;22.20;73.30
52030;DHT22;38043;53.224;6.580;2022-09-03T09:27:03;22.30;74.20
52030;DHT22;38043;53.224;6.580;2022-09-03T09:29:32;22.30;73.70
52030;DHT22;38043;53.224;6.580;2022-09-03T09:31:59;22.40;73.30
52030;DHT22;38043;53.224;6.580;2022-09-03T09:34:25;22.40;73.10
52030;DHT22;38043;53.224;6.580;2022-09-03T09:36:53;22.50;73.70
52030;DHT22;38043;53.224;6.580;2022-09-03T09:39:21;22.60;73.20
52030;DHT22;38043;53.224;6.580;2022-09-03T09:42:07;22.70;73.30
52030;DHT22;38043;53.224;6.580;2022-09-03T09:44:35;22.90;73.20
52030;DHT22;38043;53.224;6.580;2022-09-03T09:47:24;23.00;73.00
52030;DHT22;38043;53.224;6.580;2022-09-03T09:49:59;23.20;72.00
52030;DHT22;38043;53.224;6.580;2022-09-03T09:52:28;23.30;71.60
52030;DHT22;38043;53.224;6.580;2022-09-03T09:55:07;23.40;71.80
52030;DHT22;38043;53.224;6.580;2022-09-03T09:57:33;23.60;70.90
52030;DHT22;38043;53.224;6.580;2022-09-03T10:00:17;23.80;71.00
52030;DHT22;38043;53.224;6.580;2022-09-03T10:02:53;23.90;69.60
52030;DHT22;38043;53.224;6.580;2022-09-03T10:05:31;24.00;70.10
52030;DHT22;38043;53.224;6.580;2022-09-03T10:08:20;24.10;69.70
52030;DHT22;38043;53.224;6.580;2022-09-03T10:10:48;24.20;69.30
52030;DHT22;38043;53.224;6.580;2022-09-03T10:13:25;24.40;69.40
52030;DHT22;38043;53.224;6.580;2022-09-03T10:16:01;24.40;68.30
52030;DHT22;38043;53.224;6.580;2022-09-03T10:18:41;24.60;68.40
52030;DHT22;38043;53.224;6.580;2022-09-03T10:24:03;24.80;66.70
52030;DHT22;38043;53.224;6.580;2022-09-03T10:26:38;25.00;67.10
52030;DHT22;38043;53.224;6.580;2022-09-03T10:29:06;25.10;66.70
52030;DHT22;38043;53.224;6.580;2022-09-03T10:31:41;25.30;66.00
52030;DHT22;38043;53.224;6.580;2022-09-03T10:37:20;25.50;64.80
52030;DHT22;38043;53.224;6.580;2022-09-03T10:51:08;26.50;62.00
52030;DHT22;38043;53.224;6.580;2022-09-03T10:56:43;26.80;62.50
52030;DHT22;38043;53.224;6.580;2022-09-03T10:59:40;26.80;61.30
52030;DHT22;38043;53.224;6.580;2022-09-03T11:02:53;26.90;60.40
52030;DHT22;38043;53.224;6.580;2022-09-03T11:07:48;27.20;60.60
52030;DHT22;38043;53.224;6.580;2022-09-03T11:10:25;27.50;60.30
52030;DHT22;38043;53.224;6.580;2022-09-03T11:15:29;28.00;59.50
52030;DHT22;38043;53.224;6.580;2022-09-03T11:20:31;28.20;56.80
52030;DHT22;38043;53.224;6.580;2022-09-03T11:23:00;28.00;57.30
52030;DHT22;38043;53.224;6.580;2022-09-03T11:25:35;28.20;57.00
52030;DHT22;38043;53.224;6.580;2022-09-03T11:33:31;28.50;56.40
52030;DHT22;38043;53.224;6.580;2022-09-03T11:35:59;28.70;56.20
52030;DHT22;38043;53.224;6.580;2022-09-03T11:38:28;28.70;54.50
52030;DHT22;38043;53.224;6.580;2022-09-03T11:41:10;28.70;55.20
52030;DHT22;38043;53.224;6.580;2022-09-03T11:43:41;29.00;54.80
52030;DHT22;38043;53.224;6.580;2022-09-03T11:48:42;29.10;54.20
52030;DHT22;38043;53.224;6.580;2022-09-03T11:56:30;29.00;54.10
52030;DHT22;38043;53.224;6.580;2022-09-03T11:59:04;29.10;54.20
52030;DHT22;38043;53.224;6.580;2022-09-03T12:01:33;29.20;53.10
52030;DHT22;38043;53.224;6.580;2022-09-03T12:04:05;29.30;53.50
52030;DHT22;38043;53.224;6.580;2022-09-03T12:06:56;29.30;52.50
52030;DHT22;38043;53.224;6.580;2022-09-03T12:20:13;29.30;52.10
52030;DHT22;38043;53.224;6.580;2022-09-03T12:22:39;29.40;52.10
52030;DHT22;38043;53.224;6.580;2022-09-03T12:25:13;29.30;51.70
52030;DHT22;38043;53.224;6.580;2022-09-03T12:27:44;29.30;51.30
52030;DHT22;38043;53.224;6.580;2022-09-03T12:30:20;29.20;51.70
52030;DHT22;38043;53.224;6.580;2022-09-03T12:32:46;29.20;50.90
52030;DHT22;38043;53.224;6.580;2022-09-03T12:35:21;29.30;51.40
52030;DHT22;38043;53.224;6.580;2022-09-03T12:37:51;29.30;51.50
52030;DHT22;38043;53.224;6.580;2022-09-03T12:40:21;29.40;50.90
52030;DHT22;38043;53.224;6.580;2022-09-03T12:42:48;29.70;50.90
52030;DHT22;38043;53.224;6.580;2022-09-03T12:45:23;29.90;50.70
52030;DHT22;38043;53.224;6.580;2022-09-03T12:47:50;30.00;49.70
52030;DHT22;38043;53.224;6.580;2022-09-03T12:50:22;30.10;49.70
52030;DHT22;38043;53.224;6.580;2022-09-03T12:52:58;29.90;49.70
52030;DHT22;38043;53.224;6.580;2022-09-03T12:58:22;30.00;49.80
52030;DHT22;38043;53.224;6.580;2022-09-03T13:00:54;29.90;49.50
52030;DHT22;38043;53.224;6.580;2022-09-03T13:03:49;29.60;49.50
52030;DHT22;38043;53.224;6.580;2022-09-03T13:06:27;29.20;50.10
52030;DHT22;38043;53.224;6.580;2022-09-03T13:09:00;28.80;50.50
52030;DHT22;38043;53.224;6.580;2022-09-03T13:11:32;28.40;50.70
52030;DHT22;38043;53.224;6.580;2022-09-03T13:14:02;28.10;51.40
52030;DHT22;38043;53.224;6.580;2022-09-03T13:30:19;27.90;51.40
52030;DHT22;38043;53.224;6.580;2022-09-03T13:35:23;28.10;51.50
52030;DHT22;38043;53.224;6.580;2022-09-03T13:40:48;28.50;50.50
52030;DHT22;38043;53.224;6.580;2022-09-03T13:43:40;29.00;50.20
52030;DHT22;38043;53.224;6.580;2022-09-03T13:46:16;29.30;50.10
52030;DHT22;38043;53.224;6.580;2022-09-03T13:48:47;29.40;50.30
52030;DHT22;38043;53.224;6.580;2022-09-03T13:56:58;27.90;50.70
52030;DHT22;38043;53.224;6.580;2022-09-03T14:05:03;26.60;51.90
52030;DHT22;38043;53.224;6.580;2022-09-03T14:10:43;26.00;52.70
52030;DHT22;38043;53.224;6.580;2022-09-03T14:18:38;25.60;53.50
52030;DHT22;38043;53.224;6.580;2022-09-03T14:23:54;25.40;53.80
52030;DHT22;38043;53.224;6.580;2022-09-03T14:26:30;25.30;53.80
52030;DHT22;38043;53.224;6.580;2022-09-03T14:32:18;25.20;54.00
52030;DHT22;38043;53.224;6.580;2022-09-03T14:40:18;25.10;54.10
52030;DHT22;38043;53.224;6.580;2022-09-03T14:51:03;25.00;54.90
52030;DHT22;38043;53.224;6.580;2022-09-03T15:01:36;24.90;55.00
52030;DHT22;38043;53.224;6.580;2022-09-03T15:12:46;24.80;55.70
52030;DHT22;38043;53.224;6.580;2022-09-03T15:15:29;24.80;55.40
52030;DHT22;38043;53.224;6.580;2022-09-03T15:20:53;24.70;56.10
52030;DHT22;38043;53.224;6.580;2022-09-03T15:26:38;24.70;55.80
52030;DHT22;38043;53.224;6.580;2022-09-03T15:32:09;24.70;55.80
52030;DHT22;38043;53.224;6.580;2022-09-03T15:42:31;24.60;56.20
52030;DHT22;38043;53.224;6.580;2022-09-03T15:48:09;24.60;56.60
52030;DHT22;38043;53.224;6.580;2022-09-03T15:59:50;24.50;57.00
52030;DHT22;38043;53.224;6.580;2022-09-03T16:05:22;24.40;57.30
52030;DHT22;38043;53.224;6.580;2022-09-03T16:10:54;24.40;57.60
52030;DHT22;38043;53.224;6.580;2022-09-03T16:13:46;24.40;57.90
52030;DHT22;38043;53.224;6.580;2022-09-03T16:16:33;24.40;58.70
52030;DHT22;38043;53.224;6.580;2022-09-03T16:19:15;24.40;58.60
52030;DHT22;38043;53.224;6.580;2022-09-03T16:21:46;24.30;58.40
52030;DHT22;38043;53.224;6.580;2022-09-03T16:24:24;24.30;58.70
52030;DHT22;38043;53.224;6.580;2022-09-03T16:27:03;24.30;59.10
52030;DHT22;38043;53.224;6.580;2022-09-03T16:29:30;24.30;59.30
52030;DHT22;38043;53.224;6.580;2022-09-03T16:40:56;24.20;60.00
52030;DHT22;38043;53.224;6.580;2022-09-03T16:59:35;24.00;60.90
52030;DHT22;38043;53.224;6.580;2022-09-03T17:12:49;23.80;61.70
52030;DHT22;38043;53.224;6.580;2022-09-03T17:27:04;23.60;62.60
52030;DHT22;38043;53.224;6.580;2022-09-03T17:30:24;23.60;62.60
52030;DHT22;38043;53.224;6.580;2022-09-03T17:33:16;23.50;63.30
52030;DHT22;38043;53.224;6.580;2022-09-03T17:41:49;23.30;63.70
52030;DHT22;38043;53.224;6.580;2022-09-03T17:44:45;23.20;63.70
52030;DHT22;38043;53.224;6.580;2022-09-03T17:47:50;23.20;64.00
52030;DHT22;38043;53.224;6.580;2022-09-03T17:50:25;23.00;63.80
52030;DHT22;38043;53.224;6.580;2022-09-03T17:53:08;23.00;63.90
52030;DHT22;38043;53.224;6.580;2022-09-03T17:55:40;22.90;64.30
52030;DHT22;38043;53.224;6.580;2022-09-03T18:03:29;22.70;64.70
52030;DHT22;38043;53.224;6.580;2022-09-03T18:06:05;22.60;64.80
52030;DHT22;38043;53.224;6.580;2022-09-03T18:11:34;22.40;65.60
52030;DHT22;38043;53.224;6.580;2022-09-03T18:22:01;22.10;66.50
52030;DHT22;38043;53.224;6.580;2022-09-03T18:24:57;22.00;66.70
52030;DHT22;38043;53.224;6.580;2022-09-03T18:27:56;21.90;67.00
52030;DHT22;38043;53.224;6.580;2022-09-03T18:30:41;21.80;67.10
52030;DHT22;38043;53.224;6.580;2022-09-03T18:33:25;21.70;67.10
52030;DHT22;38043;53.224;6.580;2022-09-03T18:36:11;21.70;67.20
52030;DHT22;38043;53.224;6.580;2022-09-03T18:39:11;21.60;67.30
52030;DHT22;38043;53.224;6.580;2022-09-03T18:42:19;21.60;67.50
52030;DHT22;38043;53.224;6.580;2022-09-03T18:48:31;21.50;67.60
52030;DHT22;38043;53.224;6.580;2022-09-03T18:51:29;21.40;67.80
52030;DHT22;38043;53.224;6.580;2022-09-03T18:54:35;21.30;67.80
52030;DHT22;38043;53.224;6.580;2022-09-03T18:57:32;21.20;67.70
52030;DHT22;38043;53.224;6.580;2022-09-03T19:00:17;21.10;67.90
52030;DHT22;38043;53.224;6.580;2022-09-03T19:03:13;21.10;67.70
52030;DHT22;38043;53.224;6.580;2022-09-03T19:09:10;21.00;67.90
52030;DHT22;38043;53.224;6.580;2022-09-03T19:15:08;20.90;68.10
52030;DHT22;38043;53.224;6.580;2022-09-03T19:21:07;20.90;68.30
52030;DHT22;38043;53.224;6.580;2022-09-03T19:23:57;20.80;68.50
52030;DHT22;38043;53.224;6.580;2022-09-03T19:30:05;20.70;68.70
52030;DHT22;38043;53.224;6.580;2022-09-03T19:32:54;20.70;69.30
52030;DHT22;38043;53.224;6.580;2022-09-03T19:39:18;20.60;69.70
52030;DHT22;38043;53.224;6.580;2022-09-03T19:45:34;20.50;70.00
52030;DHT22;38043;53.224;6.580;2022-09-03T19:51:23;20.40;69.90
52030;DHT22;38043;53.224;6.580;2022-09-03T19:54:08;20.40;69.90
52030;DHT22;38043;53.224;6.580;2022-09-03T19:56:55;20.30;69.80
52030;DHT22;38043;53.224;6.580;2022-09-03T19:59:43;20.30;69.80
52030;DHT22;38043;53.224;6.580;2022-09-03T20:02:28;20.30;70.00
52030;DHT22;38043;53.224;6.580;2022-09-03T20:05:18;20.20;69.90
52030;DHT22;38043;53.224;6.580;2022-09-03T20:08:03;20.20;70.00
52030;DHT22;38043;53.224;6.580;2022-09-03T20:10:51;20.10;70.00
52030;DHT22;38043;53.224;6.580;2022-09-03T20:13:19;20.10;70.30
52030;DHT22;38043;53.224;6.580;2022-09-03T20:16:14;20.10;70.30
52030;DHT22;38043;53.224;6.580;2022-09-03T20:19:10;20.00;70.60
52030;DHT22;38043;53.224;6.580;2022-09-03T20:21:57;19.90;70.70
52030;DHT22;38043;53.224;6.580;2022-09-03T20:24:48;19.90;70.80
52030;DHT22;38043;53.224;6.580;2022-09-03T20:41:40;19.60;71.10
52030;DHT22;38043;53.224;6.580;2022-09-03T20:52:40;19.40;71.00
52030;DHT22;38043;53.224;6.580;2022-09-03T21:00:41;19.30;71.40
52030;DHT22;38043;53.224;6.580;2022-09-03T21:03:42;19.30;71.90
52030;DHT22;38043;53.224;6.580;2022-09-03T21:06:16;19.20;71.50
52030;DHT22;38043;53.224;6.580;2022-09-03T21:14:45;19.10;71.50
52030;DHT22;38043;53.224;6.580;2022-09-03T21:17:51;19.10;71.40
52030;DHT22;38043;53.224;6.580;2022-09-03T21:25:25;19.00;71.60
52030;DHT22;38043;53.224;6.580;2022-09-03T21:28:01;19.00;71.80
52030;DHT22;38043;53.224;6.580;2022-09-03T21:30:29;18.90;71.90
52030;DHT22;38043;53.224;6.580;2022-09-03T21:33:02;18.90;72.00
52030;DHT22;38043;53.224;6.580;2022-09-03T21:35:33;18.90;72.60
52030;DHT22;38043;53.224;6.580;2022-09-03T21:38:21;18.80;72.10
52030;DHT22;38043;53.224;6.580;2022-09-03T21:46:16;18.70;72.40
52030;DHT22;38043;53.224;6.580;2022-09-03T21:48:58;18.60;72.50
52030;DHT22;38043;53.224;6.580;2022-09-03T22:02:30;18.40;73.00
52030;DHT22;38043;53.224;6.580;2022-09-03T22:04:58;18.40;72.90
52030;DHT22;38043;53.224;6.580;2022-09-03T22:10:17;18.40;73.10
52030;DHT22;38043;53.224;6.580;2022-09-03T22:15:37;18.40;73.20
52030;DHT22;38043;53.224;6.580;2022-09-03T22:20:55;18.30;73.40
52030;DHT22;38043;53.224;6.580;2022-09-03T22:23:42;18.30;73.30
52030;DHT22;38043;53.224;6.580;2022-09-03T22:32:01;18.20;73.70
52030;DHT22;38043;53.224;6.580;2022-09-03T22:35:00;18.10;73.80
52030;DHT22;38043;53.224;6.580;2022-09-03T22:43:33;18.00;74.00
52030;DHT22;38043;53.224;6.580;2022-09-03T22:46:04;18.00;74.40
52030;DHT22;38043;53.224;6.580;2022-09-03T22:51:01;17.90;74.30
52030;DHT22;38043;53.224;6.580;2022-09-03T22:56:14;17.80;74.90
52030;DHT22;38043;53.224;6.580;2022-09-03T23:02:27;17.70;75.00
52030;DHT22;38043;53.224;6.580;2022-09-03T23:04:40;17.70;74.80
52030;DHT22;38043;53.224;6.580;2022-09-03T23:09:54;17.60;75.10
52030;DHT22;38043;53.224;6.580;2022-09-03T23:12:45;17.60;75.10
52030;DHT22;38043;53.224;6.580;2022-09-03T23:15:16;17.60;75.50
52030;DHT22;38043;53.224;6.580;2022-09-03T23:17:50;17.50;75.40